sensor_id;sensor_type;location;lat;lon;timestamp;P1;durP1;ratioP1;P2;durP2;ratioP2
19599;SDS011;9947;57.722;12.012;2023-03-01T00:01:13;18.23;;;7.40;;
19599;SDS011;9947;57.722;12.012;2023-03-01T00:03:43;11.70;;;6.90;;
19599;SDS011;9947;57.722;12.012;2023-03-01T00:06:10;16.17;;;7.87;;
19599;SDS011;9947;57.722;12.012;2023-03-01T00:08:37;12.87;;;6.77;;
19599;SDS011;9947;57.722;12.012;2023-03-01T00:11:05;14.83;;;7.50;;
19599;SDS011;9947;57.722;12.012;2023-03-01T00:13:38;12.30;;;6.43;;
19599;SDS011;9947;57.722;12.012;2023-03-01T00:16:06;9.93;;;6.33;;
19599;SDS011;9947;57.722;12.012;2023-03-01T00:18:34;12.07;;;6.20;;
19599;SDS011;9947;57.722;12.012;2023-03-01T00:21:03;14.43;;;6.97;;
19599;SDS011;9947;57.722;12.012;2023-03-01T00:23:31;13.87;;;7.60;;
19599;SDS011;9947;57.722;12.012;2023-03-01T00:26:05;16.30;;;7.83;;
19599;SDS011;9947;57.722;12.012;2023-03-01T00:28:36;14.33;;;7.20;;
19599;SDS011;9947;57.722;12.012;2023-03-01T00:31:11;14.27;;;7.50;;
19599;SDS011;9947;57.722;12.012;2023-03-01T00:33:39;14.73;;;6.93;;
19599;SDS011;9947;57.722;12.012;2023-03-01T00:36:08;13.77;;;7.00;;
19599;SDS011;9947;57.722;12.012;2023-03-01T00:38:36;15.05;;;8.10;;
19599;SDS011;9947;57.722;12.012;2023-03-01T00:41:04;12.47;;;6.77;;
19599;SDS011;9947;57.722;12.012;2023-03-01T00:43:31;11.67;;;6.90;;
19599;SDS011;9947;57.722;12.012;2023-03-01T00:46:01;12.33;;;6.90;;
19599;SDS011;9947;57.722;12.012;2023-03-01T00:48:28;14.00;;;6.80;;
19599;SDS011;9947;57.722;12.012;2023-03-01T00:50:55;15.37;;;7.60;;
19599;SDS011;9947;57.722;12.012;2023-03-01T00:53:24;11.93;;;7.33;;
19599;SDS011;9947;57.722;12.012;2023-03-01T00:55:51;13.20;;;7.03;;
19599;SDS011;9947;57.722;12.012;2023-03-01T00:58:18;15.63;;;7.40;;
19599;SDS011;9947;57.722;12.012;2023-03-01T01:00:44;10.77;;;6.87;;
19599;SDS011;9947;57.722;12.012;2023-03-01T01:03:11;15.83;;;6.70;;
19599;SDS011;9947;57.722;12.012;2023-03-01T01:05:38;11.10;;;6.60;;
19599;SDS011;9947;57.722;12.012;2023-03-01T01:08:05;11.80;;;6.63;;
19599;SDS011;9947;57.722;12.012;2023-03-01T01:10:34;17.27;;;7.47;;
19599;SDS011;9947;57.722;12.012;2023-03-01T01:13:01;11.70;;;7.07;;
19599;SDS011;9947;57.722;12.012;2023-03-01T01:15:28;12.03;;;6.53;;
19599;SDS011;9947;57.722;12.012;2023-03-01T01:17:55;16.77;;;7.87;;
19599;SDS011;9947;57.722;12.012;2023-03-01T01:20:29;13.10;;;7.60;;
19599;SDS011;9947;57.722;12.012;2023-03-01T01:22:55;12.63;;;7.60;;
19599;SDS011;9947;57.722;12.012;2023-03-01T01:25:39;14.50;;;7.67;;
19599;SDS011;9947;57.722;12.012;2023-03-01T01:28:06;17.87;;;7.87;;
19599;SDS011;9947;57.722;12.012;2023-03-01T01:30:34;20.03;;;7.40;;
19599;SDS011;9947;57.722;12.012;2023-03-01T01:33:01;12.63;;;6.63;;
19599;SDS011;9947;57.722;12.012;2023-03-01T01:35:38;12.20;;;6.30;;
19599;SDS011;9947;57.722;12.012;2023-03-01T01:38:11;15.07;;;7.00;;
19599;SDS011;9947;57.722;12.012;2023-03-01T01:40:46;14.03;;;8.30;;
19599;SDS011;9947;57.722;12.012;2023-03-01T01:43:16;14.20;;;7.60;;
19599;SDS011;9947;57.722;12.012;2023-03-01T01:45:46;12.27;;;7.20;;
19599;SDS011;9947;57.722;12.012;2023-03-01T01:48:14;15.73;;;7.60;;
19599;SDS011;9947;57.722;12.012;2023-03-01T01:50:45;13.53;;;7.97;;
19599;SDS011;9947;57.722;12.012;2023-03-01T01:53:18;10.23;;;6.87;;
19599;SDS011;9947;57.722;12.012;2023-03-01T01:55:49;13.17;;;7.17;;
19599;SDS011;9947;57.722;12.012;2023-03-01T01:58:22;12.33;;;7.10;;
19599;SDS011;9947;57.722;12.012;2023-03-01T02:00:53;13.83;;;6.97;;
19599;SDS011;9947;57.722;12.012;2023-03-01T02:03:22;13.43;;;6.53;;
19599;SDS011;9947;57.722;12.012;2023-03-01T02:05:55;10.50;;;6.20;;
19599;SDS011;9947;57.722;12.012;2023-03-01T02:08:28;9.67;;;6.50;;
19599;SDS011;9947;57.722;12.012;2023-03-01T02:10:58;10.67;;;6.17;;
19599;SDS011;9947;57.722;12.012;2023-03-01T02:13:29;10.90;;;6.03;;
19599;SDS011;9947;57.722;12.012;2023-03-01T02:15:56;8.67;;;5.40;;
19599;SDS011;9947;57.722;12.012;2023-03-01T02:18:23;7.20;;;5.33;;
19599;SDS011;9947;57.722;12.012;2023-03-01T02:21:05;10.67;;;5.73;;
19599;SDS011;9947;57.722;12.012;2023-03-01T02:23:41;12.07;;;5.47;;
19599;SDS011;9947;57.722;12.012;2023-03-01T02:26:11;8.70;;;5.00;;
19599;SDS011;9947;57.722;12.012;2023-03-01T02:28:46;6.97;;;4.70;;
19599;SDS011;9947;57.722;12.012;2023-03-01T02:31:14;7.60;;;5.10;;
19599;SDS011;9947;57.722;12.012;2023-03-01T02:34:01;9.87;;;5.43;;
19599;SDS011;9947;57.722;12.012;2023-03-01T02:36:42;10.00;;;5.60;;
19599;SDS011;9947;57.722;12.012;2023-03-01T02:39:15;10.87;;;5.63;;
19599;SDS011;9947;57.722;12.012;2023-03-01T02:41:46;8.43;;;5.40;;
19599;SDS011;9947;57.722;12.012;2023-03-01T02:44:18;10.13;;;5.33;;
19599;SDS011;9947;57.722;12.012;2023-03-01T02:46:46;10.30;;;5.10;;
19599;SDS011;9947;57.722;12.012;2023-03-01T02:49:21;9.30;;;5.23;;
19599;SDS011;9947;57.722;12.012;2023-03-01T02:51:56;10.97;;;5.80;;
19599;SDS011;9947;57.722;12.012;2023-03-01T02:54:41;11.50;;;6.93;;
19599;SDS011;9947;57.722;12.012;2023-03-01T02:57:14;9.43;;;5.43;;
19599;SDS011;9947;57.722;12.012;2023-03-01T02:59:45;12.17;;;5.93;;
19599;SDS011;9947;57.722;12.012;2023-03-01T03:02:19;10.10;;;5.57;;
19599;SDS011;9947;57.722;12.012;2023-03-01T03:05:00;8.53;;;5.30;;
19599;SDS011;9947;57.722;12.012;2023-03-01T03:07:31;8.43;;;5.43;;
19599;SDS011;9947;57.722;12.012;2023-03-01T03:10:02;10.50;;;5.43;;
19599;SDS011;9947;57.722;12.012;2023-03-01T03:12:31;7.27;;;5.40;;
19599;SDS011;9947;57.722;12.012;2023-03-01T03:14:59;14.70;;;5.73;;
19599;SDS011;9947;57.722;12.012;2023-03-01T03:17:26;8.47;;;5.20;;
19599;SDS011;9947;57.722;12.012;2023-03-01T03:19:53;9.03;;;5.60;;
19599;SDS011;9947;57.722;12.012;2023-03-01T03:22:20;8.53;;;5.87;;
19599;SDS011;9947;57.722;12.012;2023-03-01T03:24:48;9.60;;;5.87;;
19599;SDS011;9947;57.722;12.012;2023-03-01T03:27:22;8.83;;;5.50;;
19599;SDS011;9947;57.722;12.012;2023-03-01T03:29:51;12.80;;;6.40;;
19599;SDS011;9947;57.722;12.012;2023-03-01T03:32:19;10.23;;;6.20;;
19599;SDS011;9947;57.722;12.012;2023-03-01T03:34:46;9.97;;;5.43;;
19599;SDS011;9947;57.722;12.012;2023-03-01T03:37:14;8.90;;;5.30;;
19599;SDS011;9947;57.722;12.012;2023-03-01T03:39:58;10.87;;;5.43;;
19599;SDS011;9947;57.722;12.012;2023-03-01T03:42:25;8.50;;;5.60;;
19599;SDS011;9947;57.722;12.012;2023-03-01T03:44:52;8.13;;;4.90;;
19599;SDS011;9947;57.722;12.012;2023-03-01T03:47:20;8.80;;;5.17;;
19599;SDS011;9947;57.722;12.012;2023-03-01T03:49:47;7.83;;;5.63;;
19599;SDS011;9947;57.722;12.012;2023-03-01T03:52:14;7.77;;;6.17;;
19599;SDS011;9947;57.722;12.012;2023-03-01T03:54:41;9.13;;;5.47;;
19599;SDS011;9947;57.722;12.012;2023-03-01T03:57:08;9.00;;;4.97;;
19599;SDS011;9947;57.722;12.012;2023-03-01T03:59:35;7.93;;;5.17;;
19599;SDS011;9947;57.722;12.012;2023-03-01T04:02:02;7.70;;;5.00;;
19599;SDS011;9947;57.722;12.012;2023-03-01T04:04:30;8.07;;;5.60;;
19599;SDS011;9947;57.722;12.012;2023-03-01T04:06:57;8.70;;;5.43;;
19599;SDS011;9947;57.722;12.012;2023-03-01T04:09:24;11.43;;;5.67;;
19599;SDS011;9947;57.722;12.012;2023-03-01T04:11:50;7.90;;;4.80;;
19599;SDS011;9947;57.722;12.012;2023-03-01T04:14:17;6.70;;;4.97;;
19599;SDS011;9947;57.722;12.012;2023-03-01T04:16:44;8.30;;;4.33;;
19599;SDS011;9947;57.722;12.012;2023-03-01T04:19:11;8.93;;;4.23;;
19599;SDS011;9947;57.722;12.012;2023-03-01T04:21:39;8.77;;;5.23;;
19599;SDS011;9947;57.722;12.012;2023-03-01T04:24:13;7.63;;;5.40;;
19599;SDS011;9947;57.722;12.012;2023-03-01T04:26:47;10.40;;;5.80;;
19599;SDS011;9947;57.722;12.012;2023-03-01T04:29:13;7.13;;;5.13;;
19599;SDS011;9947;57.722;12.012;2023-03-01T04:31:40;6.93;;;4.33;;
19599;SDS011;9947;57.722;12.012;2023-03-01T04:34:07;11.67;;;4.90;;
19599;SDS011;9947;57.722;12.012;2023-03-01T04:36:34;7.23;;;5.37;;
19599;SDS011;9947;57.722;12.012;2023-03-01T04:39:02;6.00;;;4.10;;
19599;SDS011;9947;57.722;12.012;2023-03-01T04:41:37;8.10;;;5.03;;
19599;SDS011;9947;57.722;12.012;2023-03-01T04:44:05;8.73;;;4.37;;
19599;SDS011;9947;57.722;12.012;2023-03-01T04:46:32;7.83;;;4.73;;
19599;SDS011;9947;57.722;12.012;2023-03-01T04:48:59;8.97;;;4.90;;
19599;SDS011;9947;57.722;12.012;2023-03-01T04:51:25;9.20;;;4.87;;
19599;SDS011;9947;57.722;12.012;2023-03-01T04:53:59;6.40;;;3.97;;
19599;SDS011;9947;57.722;12.012;2023-03-01T04:56:27;7.47;;;4.87;;
19599;SDS011;9947;57.722;12.012;2023-03-01T04:58:54;6.33;;;4.47;;
19599;SDS011;9947;57.722;12.012;2023-03-01T05:01:21;5.77;;;4.23;;
19599;SDS011;9947;57.722;12.012;2023-03-01T05:03:49;10.03;;;4.27;;
19599;SDS011;9947;57.722;12.012;2023-03-01T05:06:18;6.70;;;4.23;;
19599;SDS011;9947;57.722;12.012;2023-03-01T05:08:45;8.67;;;4.90;;
19599;SDS011;9947;57.722;12.012;2023-03-01T05:11:12;8.83;;;5.17;;
19599;SDS011;9947;57.722;12.012;2023-03-01T05:13:40;7.00;;;4.70;;
19599;SDS011;9947;57.722;12.012;2023-03-01T05:16:08;12.60;;;5.93;;
19599;SDS011;9947;57.722;12.012;2023-03-01T05:18:37;16.40;;;8.27;;
19599;SDS011;9947;57.722;12.012;2023-03-01T05:21:05;13.80;;;6.20;;
19599;SDS011;9947;57.722;12.012;2023-03-01T05:23:34;10.67;;;5.63;;
19599;SDS011;9947;57.722;12.012;2023-03-01T05:26:08;8.27;;;5.30;;
19599;SDS011;9947;57.722;12.012;2023-03-01T05:28:37;11.53;;;5.77;;
19599;SDS011;9947;57.722;12.012;2023-03-01T05:31:06;7.73;;;5.50;;
19599;SDS011;9947;57.722;12.012;2023-03-01T05:33:35;9.67;;;4.97;;
19599;SDS011;9947;57.722;12.012;2023-03-01T05:36:05;12.57;;;4.67;;
19599;SDS011;9947;57.722;12.012;2023-03-01T05:38:33;9.00;;;5.13;;
19599;SDS011;9947;57.722;12.012;2023-03-01T05:41:00;7.30;;;5.33;;
19599;SDS011;9947;57.722;12.012;2023-03-01T05:43:30;8.27;;;4.37;;
19599;SDS011;9947;57.722;12.012;2023-03-01T05:46:00;6.77;;;4.10;;
19599;SDS011;9947;57.722;12.012;2023-03-01T05:48:28;7.50;;;4.80;;
19599;SDS011;9947;57.722;12.012;2023-03-01T05:50:58;23.23;;;7.17;;
19599;SDS011;9947;57.722;12.012;2023-03-01T05:53:26;13.03;;;6.70;;
19599;SDS011;9947;57.722;12.012;2023-03-01T05:55:53;51.50;;;18.23;;
19599;SDS011;9947;57.722;12.012;2023-03-01T05:58:20;67.23;;;22.80;;
19599;SDS011;9947;57.722;12.012;2023-03-01T06:00:47;10.10;;;5.47;;
19599;SDS011;9947;57.722;12.012;2023-03-01T06:03:15;10.43;;;5.20;;
19599;SDS011;9947;57.722;12.012;2023-03-01T06:05:45;7.53;;;5.20;;
19599;SDS011;9947;57.722;12.012;2023-03-01T06:08:12;13.13;;;5.03;;
19599;SDS011;9947;57.722;12.012;2023-03-01T06:10:39;12.33;;;4.50;;
19599;SDS011;9947;57.722;12.012;2023-03-01T06:13:06;8.90;;;4.50;;
19599;SDS011;9947;57.722;12.012;2023-03-01T06:15:37;11.60;;;4.77;;
19599;SDS011;9947;57.722;12.012;2023-03-01T06:18:04;19.07;;;5.80;;
19599;SDS011;9947;57.722;12.012;2023-03-01T06:20:38;9.80;;;5.13;;
19599;SDS011;9947;57.722;12.012;2023-03-01T06:23:06;8.23;;;5.00;;
19599;SDS011;9947;57.722;12.012;2023-03-01T06:25:33;6.97;;;5.00;;
19599;SDS011;9947;57.722;12.012;2023-03-01T06:28:00;8.43;;;4.80;;
19599;SDS011;9947;57.722;12.012;2023-03-01T06:30:26;9.70;;;4.47;;
19599;SDS011;9947;57.722;12.012;2023-03-01T06:32:54;9.63;;;4.03;;
19599;SDS011;9947;57.722;12.012;2023-03-01T06:35:26;5.70;;;4.00;;
19599;SDS011;9947;57.722;12.012;2023-03-01T06:37:55;5.50;;;4.13;;
19599;SDS011;9947;57.722;12.012;2023-03-01T06:40:23;5.00;;;4.40;;
19599;SDS011;9947;57.722;12.012;2023-03-01T06:42:50;6.60;;;4.50;;
19599;SDS011;9947;57.722;12.012;2023-03-01T06:45:18;6.73;;;4.10;;
19599;SDS011;9947;57.722;12.012;2023-03-01T06:47:46;6.13;;;4.00;;
19599;SDS011;9947;57.722;12.012;2023-03-01T06:50:13;6.97;;;4.00;;
19599;SDS011;9947;57.722;12.012;2023-03-01T06:52:43;13.00;;;4.30;;
19599;SDS011;9947;57.722;12.012;2023-03-01T06:55:10;8.50;;;4.63;;
19599;SDS011;9947;57.722;12.012;2023-03-01T06:57:39;6.00;;;4.60;;
19599;SDS011;9947;57.722;12.012;2023-03-01T07:00:06;9.17;;;4.77;;
19599;SDS011;9947;57.722;12.012;2023-03-01T07:02:34;6.90;;;4.80;;
19599;SDS011;9947;57.722;12.012;2023-03-01T07:05:01;8.70;;;5.40;;
19599;SDS011;9947;57.722;12.012;2023-03-01T07:07:32;6.10;;;4.20;;
19599;SDS011;9947;57.722;12.012;2023-03-01T07:09:59;6.07;;;3.90;;
19599;SDS011;9947;57.722;12.012;2023-03-01T07:12:26;9.33;;;4.03;;
19599;SDS011;9947;57.722;12.012;2023-03-01T07:15:01;12.43;;;4.73;;
19599;SDS011;9947;57.722;12.012;2023-03-01T07:17:34;10.07;;;4.63;;
19599;SDS011;9947;57.722;12.012;2023-03-01T07:20:01;8.30;;;4.57;;
19599;SDS011;9947;57.722;12.012;2023-03-01T07:22:28;7.53;;;4.20;;
19599;SDS011;9947;57.722;12.012;2023-03-01T07:24:58;8.30;;;4.87;;
19599;SDS011;9947;57.722;12.012;2023-03-01T07:27:25;7.90;;;4.40;;
19599;SDS011;9947;57.722;12.012;2023-03-01T07:29:51;6.77;;;4.67;;
19599;SDS011;9947;57.722;12.012;2023-03-01T07:32:20;8.23;;;4.63;;
19599;SDS011;9947;57.722;12.012;2023-03-01T07:34:48;8.07;;;4.73;;
19599;SDS011;9947;57.722;12.012;2023-03-01T07:37:17;9.63;;;4.37;;
19599;SDS011;9947;57.722;12.012;2023-03-01T07:39:44;8.80;;;4.30;;
19599;SDS011;9947;57.722;12.012;2023-03-01T07:42:11;5.13;;;4.20;;
19599;SDS011;9947;57.722;12.012;2023-03-01T07:44:38;9.00;;;4.07;;
19599;SDS011;9947;57.722;12.012;2023-03-01T07:47:04;5.17;;;4.30;;
19599;SDS011;9947;57.722;12.012;2023-03-01T07:49:33;5.40;;;3.70;;
19599;SDS011;9947;57.722;12.012;2023-03-01T07:52:00;6.87;;;3.50;;
19599;SDS011;9947;57.722;12.012;2023-03-01T07:54:34;7.50;;;3.57;;
19599;SDS011;9947;57.722;12.012;2023-03-01T07:57:01;5.23;;;3.47;;
19599;SDS011;9947;57.722;12.012;2023-03-01T07:59:28;6.80;;;3.80;;
19599;SDS011;9947;57.722;12.012;2023-03-01T08:01:55;8.60;;;3.73;;
19599;SDS011;9947;57.722;12.012;2023-03-01T08:04:21;8.97;;;3.97;;
19599;SDS011;9947;57.722;12.012;2023-03-01T08:06:51;7.23;;;4.03;;
19599;SDS011;9947;57.722;12.012;2023-03-01T08:09:18;8.87;;;3.80;;
19599;SDS011;9947;57.722;12.012;2023-03-01T08:11:45;6.23;;;3.23;;
19599;SDS011;9947;57.722;12.012;2023-03-01T08:14:18;4.13;;;3.10;;
19599;SDS011;9947;57.722;12.012;2023-03-01T08:16:46;5.53;;;3.17;;
19599;SDS011;9947;57.722;12.012;2023-03-01T08:19:20;4.80;;;3.43;;
19599;SDS011;9947;57.722;12.012;2023-03-01T08:21:47;3.30;;;2.90;;
19599;SDS011;9947;57.722;12.012;2023-03-01T08:24:17;4.57;;;3.00;;
19599;SDS011;9947;57.722;12.012;2023-03-01T08:26:44;4.07;;;2.70;;
19599;SDS011;9947;57.722;12.012;2023-03-01T08:29:11;3.07;;;2.80;;
19599;SDS011;9947;57.722;12.012;2023-03-01T08:31:38;3.07;;;2.70;;
19599;SDS011;9947;57.722;12.012;2023-03-01T08:34:06;4.57;;;2.63;;
19599;SDS011;9947;57.722;12.012;2023-03-01T08:36:37;3.27;;;2.50;;
19599;SDS011;9947;57.722;12.012;2023-03-01T08:39:05;7.73;;;2.83;;
19599;SDS011;9947;57.722;12.012;2023-03-01T08:41:34;5.10;;;2.60;;
19599;SDS011;9947;57.722;12.012;2023-03-01T08:44:08;3.43;;;2.40;;
19599;SDS011;9947;57.722;12.012;2023-03-01T08:46:37;2.60;;;2.27;;
19599;SDS011;9947;57.722;12.012;2023-03-01T08:49:05;7.97;;;3.10;;
19599;SDS011;9947;57.722;12.012;2023-03-01T08:51:36;4.57;;;2.30;;
19599;SDS011;9947;57.722;12.012;2023-03-01T08:54:03;5.07;;;2.47;;
19599;SDS011;9947;57.722;12.012;2023-03-01T08:56:31;8.10;;;2.30;;
19599;SDS011;9947;57.722;12.012;2023-03-01T08:59:12;8.07;;;2.60;;
19599;SDS011;9947;57.722;12.012;2023-03-01T09:01:40;5.03;;;2.30;;
19599;SDS011;9947;57.722;12.012;2023-03-01T09:04:09;8.60;;;2.70;;
19599;SDS011;9947;57.722;12.012;2023-03-01T09:06:36;7.77;;;2.57;;
19599;SDS011;9947;57.722;12.012;2023-03-01T09:09:04;4.43;;;2.33;;
19599;SDS011;9947;57.722;12.012;2023-03-01T09:11:34;11.20;;;2.70;;
19599;SDS011;9947;57.722;12.012;2023-03-01T09:14:04;5.80;;;2.60;;
19599;SDS011;9947;57.722;12.012;2023-03-01T09:16:39;10.77;;;2.60;;
19599;SDS011;9947;57.722;12.012;2023-03-01T09:19:07;6.60;;;2.23;;
19599;SDS011;9947;57.722;12.012;2023-03-01T09:21:34;7.17;;;2.40;;
19599;SDS011;9947;57.722;12.012;2023-03-01T09:24:01;14.90;;;3.03;;
19599;SDS011;9947;57.722;12.012;2023-03-01T09:26:28;6.93;;;2.60;;
19599;SDS011;9947;57.722;12.012;2023-03-01T09:28:55;7.80;;;2.30;;
19599;SDS011;9947;57.722;12.012;2023-03-01T09:31:23;6.90;;;2.30;;
19599;SDS011;9947;57.722;12.012;2023-03-01T09:33:52;12.73;;;2.33;;
19599;SDS011;9947;57.722;12.012;2023-03-01T09:36:21;7.83;;;2.87;;
19599;SDS011;9947;57.722;12.012;2023-03-01T09:38:50;10.37;;;2.43;;
19599;SDS011;9947;57.722;12.012;2023-03-01T09:41:27;10.53;;;2.40;;
19599;SDS011;9947;57.722;12.012;2023-03-01T09:44:13;6.87;;;2.17;;
19599;SDS011;9947;57.722;12.012;2023-03-01T09:46:47;3.87;;;1.80;;
19599;SDS011;9947;57.722;12.012;2023-03-01T09:49:19;10.40;;;2.60;;
19599;SDS011;9947;57.722;12.012;2023-03-01T09:51:54;3.53;;;1.93;;
19599;SDS011;9947;57.722;12.012;2023-03-01T09:54:23;4.77;;;2.10;;
19599;SDS011;9947;57.722;12.012;2023-03-01T09:56:53;13.90;;;2.60;;
19599;SDS011;9947;57.722;12.012;2023-03-01T09:59:30;8.53;;;3.07;;
19599;SDS011;9947;57.722;12.012;2023-03-01T10:02:11;9.83;;;3.03;;
19599;SDS011;9947;57.722;12.012;2023-03-01T10:04:51;3.27;;;1.93;;
19599;SDS011;9947;57.722;12.012;2023-03-01T10:07:22;6.30;;;2.10;;
19599;SDS011;9947;57.722;12.012;2023-03-01T10:09:59;5.30;;;1.93;;
19599;SDS011;9947;57.722;12.012;2023-03-01T10:12:37;8.33;;;2.10;;
19599;SDS011;9947;57.722;12.012;2023-03-01T10:15:10;4.50;;;1.97;;
19599;SDS011;9947;57.722;12.012;2023-03-01T10:17:41;2.43;;;1.80;;
19599;SDS011;9947;57.722;12.012;2023-03-01T10:20:16;8.40;;;2.40;;
19599;SDS011;9947;57.722;12.012;2023-03-01T10:22:46;6.33;;;2.17;;
19599;SDS011;9947;57.722;12.012;2023-03-01T10:25:16;5.50;;;1.60;;
19599;SDS011;9947;57.722;12.012;2023-03-01T10:27:51;6.00;;;1.80;;
19599;SDS011;9947;57.722;12.012;2023-03-01T10:30:22;4.73;;;2.00;;
19599;SDS011;9947;57.722;12.012;2023-03-01T10:32:58;4.87;;;2.10;;
19599;SDS011;9947;57.722;12.012;2023-03-01T10:35:27;6.13;;;2.13;;
19599;SDS011;9947;57.722;12.012;2023-03-01T10:38:02;7.37;;;2.20;;
19599;SDS011;9947;57.722;12.012;2023-03-01T10:40:32;2.03;;;1.60;;
19599;SDS011;9947;57.722;12.012;2023-03-01T10:43:00;6.00;;;1.80;;
19599;SDS011;9947;57.722;12.012;2023-03-01T10:45:31;7.27;;;2.10;;
19599;SDS011;9947;57.722;12.012;2023-03-01T10:48:02;12.47;;;2.80;;
19599;SDS011;9947;57.722;12.012;2023-03-01T10:50:33;3.30;;;1.70;;
19599;SDS011;9947;57.722;12.012;2023-03-01T10:53:03;1.80;;;1.50;;
19599;SDS011;9947;57.722;12.012;2023-03-01T10:55:37;8.03;;;1.87;;
19599;SDS011;9947;57.722;12.012;2023-03-01T10:58:07;3.07;;;1.40;;
19599;SDS011;9947;57.722;12.012;2023-03-01T11:00:45;4.13;;;1.70;;
19599;SDS011;9947;57.722;12.012;2023-03-01T11:03:14;3.20;;;1.73;;
19599;SDS011;9947;57.722;12.012;2023-03-01T11:05:59;2.23;;;1.80;;
19599;SDS011;9947;57.722;12.012;2023-03-01T11:08:39;1.93;;;1.53;;
19599;SDS011;9947;57.722;12.012;2023-03-01T11:13:58;4.47;;;1.57;;
19599;SDS011;9947;57.722;12.012;2023-03-01T11:16:29;4.93;;;1.60;;
19599;SDS011;9947;57.722;12.012;2023-03-01T11:19:00;2.43;;;1.63;;
19599;SDS011;9947;57.722;12.012;2023-03-01T11:21:35;4.80;;;1.90;;
19599;SDS011;9947;57.722;12.012;2023-03-01T11:24:06;14.27;;;2.33;;
19599;SDS011;9947;57.722;12.012;2023-03-01T11:26:40;7.97;;;2.40;;
19599;SDS011;9947;57.722;12.012;2023-03-01T11:29:12;8.17;;;2.60;;
19599;SDS011;9947;57.722;12.012;2023-03-01T11:31:48;8.33;;;2.00;;
19599;SDS011;9947;57.722;12.012;2023-03-01T11:34:17;4.43;;;2.17;;
19599;SDS011;9947;57.722;12.012;2023-03-01T11:36:52;8.90;;;1.90;;
19599;SDS011;9947;57.722;12.012;2023-03-01T11:39:26;9.57;;;2.27;;
19599;SDS011;9947;57.722;12.012;2023-03-01T11:42:05;11.57;;;2.10;;
19599;SDS011;9947;57.722;12.012;2023-03-01T11:44:38;12.07;;;2.23;;
19599;SDS011;9947;57.722;12.012;2023-03-01T11:47:12;2.20;;;1.40;;
19599;SDS011;9947;57.722;12.012;2023-03-01T11:49:54;2.53;;;1.70;;
19599;SDS011;9947;57.722;12.012;2023-03-01T11:52:51;5.43;;;1.60;;
19599;SDS011;9947;57.722;12.012;2023-03-01T11:55:36;7.17;;;2.00;;
19599;SDS011;9947;57.722;12.012;2023-03-01T11:58:23;4.85;;;1.60;;
19599;SDS011;9947;57.722;12.012;2023-03-01T12:01:02;7.13;;;2.30;;
19599;SDS011;9947;57.722;12.012;2023-03-01T12:03:51;4.63;;;2.30;;
19599;SDS011;9947;57.722;12.012;2023-03-01T12:06:33;6.27;;;2.00;;
19599;SDS011;9947;57.722;12.012;2023-03-01T12:09:14;4.43;;;1.90;;
19599;SDS011;9947;57.722;12.012;2023-03-01T12:14:55;1.80;;;1.50;;
19599;SDS011;9947;57.722;12.012;2023-03-01T12:17:46;1.80;;;1.70;;
19599;SDS011;9947;57.722;12.012;2023-03-01T12:20:32;8.53;;;1.53;;
19599;SDS011;9947;57.722;12.012;2023-03-01T12:23:17;3.60;;;1.43;;
19599;SDS011;9947;57.722;12.012;2023-03-01T12:26:13;2.67;;;1.70;;
19599;SDS011;9947;57.722;12.012;2023-03-01T12:28:49;3.00;;;1.50;;
19599;SDS011;9947;57.722;12.012;2023-03-01T12:31:36;6.80;;;2.03;;
19599;SDS011;9947;57.722;12.012;2023-03-01T12:34:19;3.30;;;2.13;;
19599;SDS011;9947;57.722;12.012;2023-03-01T12:37:04;1.47;;;1.37;;
19599;SDS011;9947;57.722;12.012;2023-03-01T12:39:46;6.53;;;1.50;;
19599;SDS011;9947;57.722;12.012;2023-03-01T12:42:27;4.97;;;1.50;;
19599;SDS011;9947;57.722;12.012;2023-03-01T12:45:07;1.87;;;1.37;;
19599;SDS011;9947;57.722;12.012;2023-03-01T12:47:55;1.83;;;1.40;;
19599;SDS011;9947;57.722;12.012;2023-03-01T12:50:42;2.37;;;1.50;;
19599;SDS011;9947;57.722;12.012;2023-03-01T12:53:16;1.50;;;1.40;;
19599;SDS011;9947;57.722;12.012;2023-03-01T12:55:58;3.50;;;1.40;;
19599;SDS011;9947;57.722;12.012;2023-03-01T12:58:29;5.00;;;1.47;;
19599;SDS011;9947;57.722;12.012;2023-03-01T13:01:08;2.97;;;1.50;;
19599;SDS011;9947;57.722;12.012;2023-03-01T13:03:48;3.50;;;1.40;;
19599;SDS011;9947;57.722;12.012;2023-03-01T13:06:39;2.07;;;1.50;;
19599;SDS011;9947;57.722;12.012;2023-03-01T13:09:13;4.77;;;1.57;;
19599;SDS011;9947;57.722;12.012;2023-03-01T13:11:45;1.37;;;1.37;;
19599;SDS011;9947;57.722;12.012;2023-03-01T13:17:32;3.63;;;1.60;;
19599;SDS011;9947;57.722;12.012;2023-03-01T13:22:41;5.10;;;1.43;;
19599;SDS011;9947;57.722;12.012;2023-03-01T13:25:17;5.30;;;1.70;;
19599;SDS011;9947;57.722;12.012;2023-03-01T13:31:07;10.03;;;1.87;;
19599;SDS011;9947;57.722;12.012;2023-03-01T13:33:42;1.93;;;1.80;;
19599;SDS011;9947;57.722;12.012;2023-03-01T13:39:27;3.73;;;1.80;;
19599;SDS011;9947;57.722;12.012;2023-03-01T13:41:58;4.93;;;1.53;;
19599;SDS011;9947;57.722;12.012;2023-03-01T13:44:26;4.27;;;1.67;;
19599;SDS011;9947;57.722;12.012;2023-03-01T13:47:03;2.30;;;1.43;;
19599;SDS011;9947;57.722;12.012;2023-03-01T13:49:41;2.20;;;1.50;;
19599;SDS011;9947;57.722;12.012;2023-03-01T13:52:21;6.20;;;1.80;;
19599;SDS011;9947;57.722;12.012;2023-03-01T13:55:16;4.73;;;1.93;;
19599;SDS011;9947;57.722;12.012;2023-03-01T13:57:47;4.97;;;1.90;;
19599;SDS011;9947;57.722;12.012;2023-03-01T14:00:30;3.47;;;1.57;;
19599;SDS011;9947;57.722;12.012;2023-03-01T14:03:02;2.97;;;1.57;;
19599;SDS011;9947;57.722;12.012;2023-03-01T14:05:32;5.70;;;1.40;;
19599;SDS011;9947;57.722;12.012;2023-03-01T14:08:17;1.90;;;1.30;;
19599;SDS011;9947;57.722;12.012;2023-03-01T14:10:59;2.27;;;1.40;;
19599;SDS011;9947;57.722;12.012;2023-03-01T14:13:47;1.20;;;1.20;;
19599;SDS011;9947;57.722;12.012;2023-03-01T14:16:24;3.87;;;1.37;;
19599;SDS011;9947;57.722;12.012;2023-03-01T14:19:07;1.87;;;1.33;;
19599;SDS011;9947;57.722;12.012;2023-03-01T14:21:42;11.37;;;2.13;;
19599;SDS011;9947;57.722;12.012;2023-03-01T14:24:15;4.40;;;1.10;;
19599;SDS011;9947;57.722;12.012;2023-03-01T14:26:44;2.33;;;1.30;;
19599;SDS011;9947;57.722;12.012;2023-03-01T14:29:23;1.57;;;1.47;;
19599;SDS011;9947;57.722;12.012;2023-03-01T14:31:51;2.80;;;1.20;;
19599;SDS011;9947;57.722;12.012;2023-03-01T14:34:20;1.40;;;1.30;;
19599;SDS011;9947;57.722;12.012;2023-03-01T14:36:48;5.70;;;1.50;;
19599;SDS011;9947;57.722;12.012;2023-03-01T14:39:19;1.20;;;1.20;;
19599;SDS011;9947;57.722;12.012;2023-03-01T14:41:50;2.60;;;1.30;;
19599;SDS011;9947;57.722;12.012;2023-03-01T14:44:19;2.40;;;1.23;;
19599;SDS011;9947;57.722;12.012;2023-03-01T14:46:51;2.80;;;1.50;;
19599;SDS011;9947;57.722;12.012;2023-03-01T14:49:24;4.13;;;1.37;;
19599;SDS011;9947;57.722;12.012;2023-03-01T14:51:56;4.73;;;1.70;;
19599;SDS011;9947;57.722;12.012;2023-03-01T14:54:35;1.33;;;1.20;;
19599;SDS011;9947;57.722;12.012;2023-03-01T14:57:12;5.60;;;1.33;;
19599;SDS011;9947;57.722;12.012;2023-03-01T14:59:42;3.50;;;1.40;;
19599;SDS011;9947;57.722;12.012;2023-03-01T15:02:11;8.43;;;1.40;;
19599;SDS011;9947;57.722;12.012;2023-03-01T15:04:44;1.10;;;1.10;;
19599;SDS011;9947;57.722;12.012;2023-03-01T15:07:14;3.83;;;1.20;;
19599;SDS011;9947;57.722;12.012;2023-03-01T15:09:48;4.50;;;1.30;;
19599;SDS011;9947;57.722;12.012;2023-03-01T15:12:31;2.50;;;1.57;;
19599;SDS011;9947;57.722;12.012;2023-03-01T15:15:18;1.87;;;1.50;;
19599;SDS011;9947;57.722;12.012;2023-03-01T15:17:49;1.63;;;1.30;;
19599;SDS011;9947;57.722;12.012;2023-03-01T15:20:22;2.33;;;1.33;;
19599;SDS011;9947;57.722;12.012;2023-03-01T15:22:53;3.50;;;1.50;;
19599;SDS011;9947;57.722;12.012;2023-03-01T15:25:22;7.63;;;1.60;;
19599;SDS011;9947;57.722;12.012;2023-03-01T15:27:51;3.10;;;1.33;;